TAM3757 SBGO-SBRJ
Flight info
| Callsign | TAM3757 |
|---|---|
| Flight time | 1h 27m |
| Altitude | 35000 |
| Route | ESBOD UZ31 OPKIL UZ8 VULAD UZ6 TOKIM |
| Aircraft | A320/M-SDE3FGHIRWY/LB1 |
Departure
| Time | 2026-04-18 03:50 |
|---|---|
| Airport | Santa Genoveva International Airport (SBGO) |
Arrival
| Time | 2026-04-18 05:18 |
|---|---|
| Airport | Santos Dumont Airport (SBRJ) |
| Time | Latitude | Longitude | Altitude | Speed | Heading |
|---|---|---|---|---|---|
| 2026-04-18 03:09 | -16.63004 | -49.21508 | 2462 ft | 0 kts | 56° |
| 2026-04-18 03:39 | -16.63006 | -49.21510 | 2462 ft | 2 kts | 56° |
| 2026-04-18 03:39 | -16.63019 | -49.21532 | 2468 ft | 3 kts | 57° |
| 2026-04-18 03:39 | -16.63030 | -49.21556 | 2464 ft | 4 kts | 87° |
| 2026-04-18 03:39 | -16.63024 | -49.21581 | 2462 ft | 4 kts | 135° |
| 2026-04-18 03:40 | -16.63002 | -49.21597 | 2462 ft | 4 kts | 155° |
| 2026-04-18 03:40 | -16.62989 | -49.21603 | 2466 ft | 0 kts | 155° |
| 2026-04-18 03:44 | -16.62995 | -49.21600 | 2462 ft | 4 kts | 155° |
| 2026-04-18 03:44 | -16.63047 | -49.21569 | 2462 ft | 13 kts | 146° |
| 2026-04-18 03:45 | -16.63126 | -49.21490 | 2462 ft | 18 kts | 128° |
| 2026-04-18 03:45 | -16.63199 | -49.21364 | 2464 ft | 19 kts | 120° |
| 2026-04-18 03:45 | -16.63268 | -49.21241 | 2464 ft | 20 kts | 120° |
| 2026-04-18 03:45 | -16.63342 | -49.21109 | 2463 ft | 22 kts | 121° |
| 2026-04-18 03:46 | -16.63458 | -49.21017 | 2463 ft | 22 kts | 163° |
| 2026-04-18 03:46 | -16.63553 | -49.20996 | 2466 ft | 11 kts | 185° |
| 2026-04-18 03:46 | -16.63619 | -49.21029 | 2464 ft | 11 kts | 206° |
| 2026-04-18 03:46 | -16.63666 | -49.21055 | 2460 ft | 3 kts | 209° |
| 2026-04-18 03:47 | -16.63686 | -49.21067 | 2463 ft | 6 kts | 208° |
| 2026-04-18 03:48 | -16.63731 | -49.21092 | 2464 ft | 7 kts | 208° |
| 2026-04-18 03:48 | -16.63746 | -49.21126 | 2462 ft | 8 kts | 284° |
| 2026-04-18 03:48 | -16.63730 | -49.21157 | 2463 ft | 0 kts | 302° |
| 2026-04-18 03:49 | -16.63711 | -49.21189 | 2463 ft | 31 kts | 300° |
| 2026-04-18 03:49 | -16.63465 | -49.21629 | 2459 ft | 106 kts | 301° |
| 2026-04-18 03:50 | -16.62987 | -49.22484 | 2463 ft | 162 kts | 299° |
| 2026-04-18 03:50 | -16.62417 | -49.23499 | 3183 ft | 160 kts | 300° |
| 2026-04-18 03:50 | -16.61851 | -49.24502 | 3863 ft | 164 kts | 301° |
| 2026-04-18 03:50 | -16.61237 | -49.25592 | 4196 ft | 186 kts | 300° |
| 2026-04-18 03:51 | -16.60544 | -49.26826 | 4480 ft | 209 kts | 300° |
| 2026-04-18 03:51 | -16.59765 | -49.28212 | 4787 ft | 234 kts | 300° |
| 2026-04-18 03:51 | -16.58899 | -49.29751 | 5173 ft | 258 kts | 300° |
| 2026-04-18 03:51 | -16.57954 | -49.31431 | 5727 ft | 276 kts | 300° |
| 2026-04-18 03:52 | -16.56970 | -49.33177 | 6536 ft | 283 kts | 300° |
| 2026-04-18 03:52 | -16.56271 | -49.35096 | 7348 ft | 288 kts | 274° |
| 2026-04-18 03:52 | -16.56552 | -49.37150 | 7809 ft | 289 kts | 245° |
| 2026-04-18 03:52 | -16.57777 | -49.38729 | 7961 ft | 286 kts | 213° |
| 2026-04-18 03:53 | -16.59624 | -49.39384 | 7998 ft | 283 kts | 180° |
| 2026-04-18 03:53 | -16.61554 | -49.39032 | 8002 ft | 283 kts | 161° |
| 2026-04-18 03:53 | -16.63398 | -49.38298 | 8005 ft | 284 kts | 158° |
| 2026-04-18 03:53 | -16.65234 | -49.37537 | 8006 ft | 284 kts | 158° |
| 2026-04-18 03:54 | -16.67074 | -49.36773 | 8005 ft | 284 kts | 158° |
| 2026-04-18 03:54 | -16.68924 | -49.36043 | 8004 ft | 284 kts | 163° |
| 2026-04-18 03:54 | -16.70839 | -49.35526 | 8006 ft | 284 kts | 168° |
| 2026-04-18 03:54 | -16.72781 | -49.35138 | 8003 ft | 284 kts | 170° |
| 2026-04-18 03:55 | -16.74732 | -49.34790 | 8004 ft | 284 kts | 170° |
| 2026-04-18 03:55 | -16.76681 | -49.34444 | 8002 ft | 284 kts | 170° |
| 2026-04-18 03:55 | -16.78629 | -49.34082 | 7990 ft | 284 kts | 170° |
| 2026-04-18 03:55 | -16.80569 | -49.33684 | 7984 ft | 284 kts | 165° |
| 2026-04-18 03:56 | -16.82412 | -49.32909 | 8171 ft | 291 kts | 153° |
| 2026-04-18 03:56 | -16.84221 | -49.31967 | 9130 ft | 290 kts | 154° |
| 2026-04-18 03:56 | -16.86033 | -49.31034 | 10042 ft | 292 kts | 155° |
| 2026-04-18 03:56 | -16.87911 | -49.30071 | 10481 ft | 313 kts | 155° |
| 2026-04-18 03:57 | -16.92074 | -49.27936 | 11303 ft | 347 kts | 154° |
| 2026-04-18 03:57 | -16.94252 | -49.26814 | 12021 ft | 352 kts | 154° |
| 2026-04-18 03:57 | -16.96461 | -49.25674 | 12758 ft | 356 kts | 154° |
| 2026-04-18 03:58 | -16.98693 | -49.24519 | 13481 ft | 360 kts | 154° |
| 2026-04-18 03:58 | -17.00955 | -49.23346 | 14147 ft | 365 kts | 154° |
| 2026-04-18 03:58 | -17.03239 | -49.22164 | 14774 ft | 369 kts | 154° |
| 2026-04-18 03:58 | -17.05554 | -49.20969 | 15393 ft | 373 kts | 154° |
| 2026-04-18 03:59 | -17.07893 | -49.19761 | 16008 ft | 377 kts | 154° |
| 2026-04-18 03:59 | -17.10259 | -49.18542 | 16610 ft | 381 kts | 154° |
| 2026-04-18 03:59 | -17.12652 | -49.17308 | 17235 ft | 386 kts | 155° |
| 2026-04-18 03:59 | -17.14250 | -49.16482 | 17647 ft | 388 kts | 155° |
| 2026-04-18 04:00 | -17.16686 | -49.15225 | 18241 ft | 393 kts | 155° |
| 2026-04-18 04:00 | -17.19147 | -49.13952 | 18761 ft | 397 kts | 155° |
| 2026-04-18 04:00 | -17.21629 | -49.12663 | 19287 ft | 401 kts | 155° |
| 2026-04-18 04:00 | -17.24138 | -49.11358 | 19826 ft | 404 kts | 155° |
| 2026-04-18 04:01 | -17.26669 | -49.10044 | 20361 ft | 408 kts | 155° |
| 2026-04-18 04:01 | -17.29254 | -49.08787 | 20897 ft | 411 kts | 161° |
| 2026-04-18 04:01 | -17.31999 | -49.07956 | 21431 ft | 412 kts | 171° |
| 2026-04-18 04:01 | -17.34826 | -49.07378 | 21950 ft | 415 kts | 171° |
| 2026-04-18 04:02 | -17.37670 | -49.06799 | 22470 ft | 419 kts | 171° |
| 2026-04-18 04:02 | -17.40543 | -49.06217 | 22969 ft | 422 kts | 171° |
| 2026-04-18 04:02 | -17.43435 | -49.05629 | 23454 ft | 425 kts | 171° |
| 2026-04-18 04:02 | -17.46348 | -49.05030 | 23871 ft | 428 kts | 171° |
| 2026-04-18 04:03 | -17.49284 | -49.04423 | 24264 ft | 431 kts | 172° |
| 2026-04-18 04:03 | -17.52236 | -49.03815 | 24653 ft | 434 kts | 172° |
| 2026-04-18 04:03 | -17.55210 | -49.03206 | 25033 ft | 437 kts | 172° |
| 2026-04-18 04:03 | -17.58199 | -49.02594 | 25409 ft | 439 kts | 172° |
| 2026-04-18 04:04 | -17.61210 | -49.01974 | 25783 ft | 442 kts | 172° |
| 2026-04-18 04:04 | -17.64239 | -49.01348 | 26152 ft | 445 kts | 172° |
| 2026-04-18 04:04 | -17.67288 | -49.00722 | 26518 ft | 448 kts | 172° |
| 2026-04-18 04:04 | -17.70354 | -49.00094 | 26873 ft | 451 kts | 172° |
| 2026-04-18 04:05 | -17.73439 | -48.99462 | 27217 ft | 453 kts | 173° |
| 2026-04-18 04:05 | -17.76545 | -48.98843 | 27559 ft | 456 kts | 173° |
| 2026-04-18 04:05 | -17.79673 | -48.98246 | 27912 ft | 458 kts | 174° |
| 2026-04-18 04:05 | -17.82823 | -48.97658 | 28245 ft | 461 kts | 174° |
| 2026-04-18 04:06 | -17.85989 | -48.97070 | 28570 ft | 464 kts | 174° |
| 2026-04-18 04:06 | -17.89177 | -48.96477 | 28878 ft | 466 kts | 174° |
| 2026-04-18 04:06 | -17.92377 | -48.95877 | 29181 ft | 469 kts | 174° |
| 2026-04-18 04:06 | -17.95600 | -48.95268 | 29462 ft | 472 kts | 174° |
| 2026-04-18 04:07 | -17.98834 | -48.94652 | 29769 ft | 474 kts | 174° |
| 2026-04-18 04:07 | -18.02089 | -48.94030 | 30042 ft | 477 kts | 174° |
| 2026-04-18 04:07 | -18.05357 | -48.93404 | 30283 ft | 478 kts | 174° |
| 2026-04-18 04:07 | -18.08636 | -48.92778 | 30528 ft | 479 kts | 174° |
| 2026-04-18 04:08 | -18.11913 | -48.92098 | 30831 ft | 482 kts | 169° |
| 2026-04-18 04:08 | -18.15059 | -48.90858 | 31183 ft | 488 kts | 157° |
| 2026-04-18 04:08 | -18.17938 | -48.88920 | 31533 ft | 495 kts | 145° |
| 2026-04-18 04:08 | -18.20393 | -48.86363 | 31877 ft | 501 kts | 132° |
| 2026-04-18 04:09 | -18.22301 | -48.83276 | 32212 ft | 507 kts | 119° |
| 2026-04-18 04:09 | -18.23590 | -48.79869 | 32531 ft | 509 kts | 111° |
| 2026-04-18 04:09 | -18.24767 | -48.76302 | 32854 ft | 509 kts | 111° |
| 2026-04-18 04:09 | -18.25907 | -48.72834 | 33178 ft | 509 kts | 111° |
| 2026-04-18 04:10 | -18.27065 | -48.69312 | 33516 ft | 509 kts | 112° |
| 2026-04-18 04:10 | -18.28223 | -48.65798 | 33840 ft | 509 kts | 112° |
| 2026-04-18 04:10 | -18.29386 | -48.62282 | 34135 ft | 508 kts | 112° |
| 2026-04-18 04:10 | -18.30551 | -48.58769 | 34432 ft | 508 kts | 112° |
| 2026-04-18 04:11 | -18.31713 | -48.55262 | 34739 ft | 507 kts | 112° |
| 2026-04-18 04:11 | -18.32874 | -48.51753 | 34885 ft | 508 kts | 112° |
| 2026-04-18 04:11 | -18.34030 | -48.48246 | 34929 ft | 506 kts | 112° |
| 2026-04-18 04:12 | -18.36328 | -48.41255 | 34926 ft | 505 kts | 112° |
| 2026-04-18 04:12 | -18.38624 | -48.34264 | 34927 ft | 505 kts | 112° |
| 2026-04-18 04:13 | -18.40918 | -48.27278 | 34926 ft | 505 kts | 112° |
| 2026-04-18 04:13 | -18.43207 | -48.20295 | 34929 ft | 504 kts | 112° |
| 2026-04-18 04:14 | -18.45497 | -48.13312 | 34931 ft | 505 kts | 112° |
| 2026-04-18 04:14 | -18.47790 | -48.06327 | 34937 ft | 505 kts | 112° |
| 2026-04-18 04:15 | -18.50076 | -47.99336 | 34942 ft | 504 kts | 112° |
| 2026-04-18 04:15 | -18.52358 | -47.92352 | 34945 ft | 504 kts | 112° |
| 2026-04-18 04:16 | -18.54637 | -47.85364 | 34948 ft | 504 kts | 112° |
| 2026-04-18 04:16 | -18.56916 | -47.78372 | 34947 ft | 504 kts | 112° |
| 2026-04-18 04:17 | -18.59189 | -47.71388 | 34949 ft | 504 kts | 112° |
| 2026-04-18 04:17 | -18.61458 | -47.64389 | 34947 ft | 504 kts | 112° |
| 2026-04-18 04:18 | -18.63729 | -47.57390 | 34949 ft | 504 kts | 112° |
| 2026-04-18 04:18 | -18.65998 | -47.50390 | 34954 ft | 504 kts | 112° |
| 2026-04-18 04:19 | -18.68263 | -47.43388 | 34953 ft | 505 kts | 112° |
| 2026-04-18 04:19 | -18.70523 | -47.36383 | 34955 ft | 504 kts | 112° |
| 2026-04-18 04:20 | -18.72782 | -47.29382 | 34952 ft | 504 kts | 112° |
| 2026-04-18 04:20 | -18.75035 | -47.22378 | 34955 ft | 504 kts | 112° |
| 2026-04-18 04:21 | -18.77284 | -47.15366 | 34958 ft | 504 kts | 111° |
| 2026-04-18 04:21 | -18.79520 | -47.08409 | 34962 ft | 504 kts | 111° |
| 2026-04-18 04:22 | -18.81769 | -47.01400 | 34965 ft | 504 kts | 111° |
| 2026-04-18 04:22 | -18.84014 | -46.94389 | 34969 ft | 505 kts | 112° |
| 2026-04-18 04:23 | -18.86261 | -46.87369 | 34972 ft | 504 kts | 111° |
| 2026-04-18 04:23 | -18.88502 | -46.80352 | 34973 ft | 505 kts | 111° |
| 2026-04-18 04:24 | -18.90735 | -46.73325 | 34978 ft | 504 kts | 111° |
| 2026-04-18 04:24 | -18.92967 | -46.66307 | 34979 ft | 504 kts | 111° |
| 2026-04-18 04:25 | -18.95244 | -46.59307 | 34976 ft | 503 kts | 112° |
| 2026-04-18 04:25 | -18.97644 | -46.52369 | 34975 ft | 503 kts | 114° |
| 2026-04-18 04:26 | -19.00072 | -46.45444 | 34972 ft | 502 kts | 113° |
| 2026-04-18 04:26 | -19.02462 | -46.38504 | 34972 ft | 502 kts | 113° |
| 2026-04-18 04:27 | -19.04807 | -46.31602 | 34971 ft | 503 kts | 112° |
| 2026-04-18 04:27 | -19.07172 | -46.24652 | 34970 ft | 503 kts | 113° |
| 2026-04-18 04:28 | -19.09549 | -46.17701 | 34964 ft | 503 kts | 113° |
| 2026-04-18 04:28 | -19.11927 | -46.10736 | 34955 ft | 504 kts | 113° |
| 2026-04-18 04:29 | -19.14451 | -46.03832 | 34950 ft | 501 kts | 121° |
| 2026-04-18 04:29 | -19.18420 | -45.97913 | 34954 ft | 489 kts | 140° |
| 2026-04-18 04:30 | -19.23714 | -45.93584 | 34951 ft | 476 kts | 156° |
| 2026-04-18 04:30 | -19.39419 | -45.84081 | 34954 ft | 477 kts | 156° |
| 2026-04-18 04:31 | -19.62415 | -45.69806 | 34951 ft | 480 kts | 155° |
| 2026-04-18 04:31 | -19.85318 | -45.55176 | 34959 ft | 481 kts | 155° |
| 2026-04-18 04:32 | -19.92353 | -45.50671 | 34964 ft | 481 kts | 155° |
| 2026-04-18 04:32 | -19.98094 | -45.46995 | 34964 ft | 482 kts | 155° |
| 2026-04-18 04:33 | -20.03834 | -45.43321 | 34965 ft | 481 kts | 155° |
| 2026-04-18 04:33 | -20.09566 | -45.39644 | 34964 ft | 481 kts | 155° |
| 2026-04-18 04:34 | -20.15289 | -45.35944 | 34962 ft | 481 kts | 155° |
| 2026-04-18 04:34 | -20.20990 | -45.32197 | 34959 ft | 482 kts | 154° |
| 2026-04-18 04:35 | -20.26680 | -45.28437 | 34962 ft | 482 kts | 154° |
| 2026-04-18 04:35 | -20.32389 | -45.24686 | 34965 ft | 482 kts | 155° |
| 2026-04-18 04:36 | -20.38093 | -45.20941 | 34969 ft | 482 kts | 155° |
| 2026-04-18 04:36 | -20.43799 | -45.17190 | 34971 ft | 482 kts | 155° |
| 2026-04-18 04:37 | -20.49501 | -45.13437 | 34973 ft | 482 kts | 155° |
| 2026-04-18 04:37 | -20.55200 | -45.09680 | 34979 ft | 482 kts | 155° |
| 2026-04-18 04:38 | -20.60903 | -45.05927 | 34972 ft | 481 kts | 155° |
| 2026-04-18 04:38 | -20.66598 | -45.02181 | 34973 ft | 481 kts | 155° |
| 2026-04-18 04:39 | -20.72294 | -44.98422 | 34978 ft | 481 kts | 155° |
| 2026-04-18 04:39 | -20.77995 | -44.94671 | 34973 ft | 481 kts | 155° |
| 2026-04-18 04:40 | -20.83699 | -44.90944 | 34806 ft | 481 kts | 155° |
| 2026-04-18 04:40 | -20.86559 | -44.89076 | 34580 ft | 482 kts | 155° |
| 2026-04-18 04:40 | -20.89420 | -44.87206 | 34351 ft | 482 kts | 155° |
| 2026-04-18 04:40 | -20.92285 | -44.85328 | 34126 ft | 483 kts | 155° |
| 2026-04-18 04:41 | -20.95150 | -44.83447 | 33888 ft | 484 kts | 155° |
| 2026-04-18 04:41 | -20.97981 | -44.81584 | 33635 ft | 484 kts | 154° |
| 2026-04-18 04:41 | -21.00849 | -44.79696 | 33381 ft | 485 kts | 154° |
| 2026-04-18 04:41 | -21.03731 | -44.77804 | 33129 ft | 485 kts | 154° |
| 2026-04-18 04:42 | -21.06614 | -44.75916 | 32879 ft | 486 kts | 154° |
| 2026-04-18 04:42 | -21.09510 | -44.74043 | 32628 ft | 486 kts | 155° |
| 2026-04-18 04:42 | -21.12416 | -44.72191 | 32384 ft | 487 kts | 155° |
| 2026-04-18 04:42 | -21.15337 | -44.70348 | 32136 ft | 487 kts | 155° |
| 2026-04-18 04:43 | -21.18258 | -44.68507 | 31899 ft | 488 kts | 155° |
| 2026-04-18 04:43 | -21.21184 | -44.66650 | 31661 ft | 489 kts | 154° |
| 2026-04-18 04:43 | -21.24102 | -44.64759 | 31423 ft | 490 kts | 153° |
| 2026-04-18 04:43 | -21.27008 | -44.62838 | 31186 ft | 493 kts | 153° |
| 2026-04-18 04:44 | -21.29955 | -44.60868 | 30949 ft | 505 kts | 153° |
| 2026-04-18 04:44 | -21.32952 | -44.58857 | 30715 ft | 511 kts | 152° |
| 2026-04-18 04:44 | -21.35973 | -44.56832 | 30485 ft | 513 kts | 152° |
| 2026-04-18 04:44 | -21.39006 | -44.54806 | 30255 ft | 514 kts | 152° |
| 2026-04-18 04:45 | -21.42048 | -44.52781 | 30024 ft | 514 kts | 152° |
| 2026-04-18 04:45 | -21.45050 | -44.50785 | 29753 ft | 502 kts | 152° |
| 2026-04-18 04:45 | -21.48000 | -44.48826 | 29491 ft | 496 kts | 152° |
| 2026-04-18 04:45 | -21.50924 | -44.46885 | 29223 ft | 493 kts | 152° |
| 2026-04-18 04:46 | -21.53834 | -44.44955 | 28962 ft | 490 kts | 152° |
| 2026-04-18 04:46 | -21.56650 | -44.43086 | 28735 ft | 471 kts | 152° |
| 2026-04-18 04:46 | -21.59349 | -44.41285 | 28530 ft | 444 kts | 152° |
| 2026-04-18 04:46 | -21.61898 | -44.39583 | 28342 ft | 419 kts | 153° |
| 2026-04-18 04:47 | -21.64317 | -44.37971 | 28008 ft | 402 kts | 153° |
| 2026-04-18 04:47 | -21.66665 | -44.36412 | 27430 ft | 393 kts | 153° |
| 2026-04-18 04:47 | -21.68975 | -44.34884 | 26768 ft | 386 kts | 153° |
| 2026-04-18 04:47 | -21.71250 | -44.33378 | 26098 ft | 381 kts | 153° |
| 2026-04-18 04:48 | -21.73491 | -44.31893 | 25443 ft | 376 kts | 152° |
| 2026-04-18 04:48 | -21.75706 | -44.30423 | 24797 ft | 371 kts | 152° |
| 2026-04-18 04:48 | -21.77891 | -44.28970 | 24152 ft | 367 kts | 152° |
| 2026-04-18 04:48 | -21.80046 | -44.27534 | 23538 ft | 362 kts | 152° |
| 2026-04-18 04:49 | -21.82175 | -44.26114 | 22826 ft | 358 kts | 152° |
| 2026-04-18 04:49 | -21.83602 | -44.25163 | 22357 ft | 355 kts | 151° |
| 2026-04-18 04:49 | -21.85663 | -44.23790 | 21707 ft | 351 kts | 151° |
| 2026-04-18 04:49 | -21.87725 | -44.22417 | 21068 ft | 347 kts | 151° |
| 2026-04-18 04:50 | -21.90451 | -44.20598 | 20243 ft | 342 kts | 151° |
| 2026-04-18 04:50 | -21.91794 | -44.19719 | 19862 ft | 339 kts | 154° |
| 2026-04-18 04:50 | -21.93901 | -44.18613 | 19612 ft | 336 kts | 160° |
| 2026-04-18 04:50 | -21.96061 | -44.17647 | 19376 ft | 336 kts | 160° |
| 2026-04-18 04:51 | -21.98221 | -44.16675 | 19143 ft | 336 kts | 160° |
| 2026-04-18 04:51 | -22.00368 | -44.15706 | 18922 ft | 334 kts | 160° |
| 2026-04-18 04:51 | -22.02508 | -44.14740 | 18717 ft | 332 kts | 160° |
| 2026-04-18 04:51 | -22.04644 | -44.13773 | 18316 ft | 331 kts | 160° |
| 2026-04-18 04:52 | -22.06758 | -44.12816 | 17858 ft | 329 kts | 159° |
| 2026-04-18 04:52 | -22.08865 | -44.11863 | 17405 ft | 329 kts | 159° |
| 2026-04-18 04:52 | -22.10982 | -44.10908 | 16947 ft | 327 kts | 159° |
| 2026-04-18 04:52 | -22.13055 | -44.09970 | 16498 ft | 319 kts | 159° |
| 2026-04-18 04:53 | -22.15073 | -44.09058 | 16057 ft | 311 kts | 159° |
| 2026-04-18 04:53 | -22.17047 | -44.08165 | 15628 ft | 304 kts | 159° |
| 2026-04-18 04:53 | -22.18985 | -44.07291 | 15196 ft | 300 kts | 159° |
| 2026-04-18 04:53 | -22.20911 | -44.06424 | 14780 ft | 302 kts | 159° |
| 2026-04-18 04:54 | -22.22863 | -44.05545 | 14366 ft | 305 kts | 159° |
| 2026-04-18 04:54 | -22.24802 | -44.04666 | 13949 ft | 299 kts | 159° |
| 2026-04-18 04:54 | -22.26696 | -44.03807 | 13514 ft | 292 kts | 159° |
| 2026-04-18 04:54 | -22.28559 | -44.02962 | 13052 ft | 287 kts | 159° |
| 2026-04-18 04:55 | -22.30355 | -44.02147 | 12605 ft | 281 kts | 159° |
| 2026-04-18 04:55 | -22.32169 | -44.01326 | 12152 ft | 278 kts | 159° |
| 2026-04-18 04:55 | -22.33944 | -44.00524 | 11712 ft | 275 kts | 158° |
| 2026-04-18 04:56 | -22.37463 | -43.98932 | 10860 ft | 279 kts | 158° |
| 2026-04-18 04:56 | -22.39264 | -43.98115 | 10435 ft | 283 kts | 158° |
| 2026-04-18 04:56 | -22.41089 | -43.97285 | 10015 ft | 286 kts | 158° |
| 2026-04-18 04:56 | -22.42932 | -43.96446 | 9579 ft | 288 kts | 158° |
| 2026-04-18 04:57 | -22.44776 | -43.95610 | 9107 ft | 285 kts | 158° |
| 2026-04-18 04:57 | -22.46575 | -43.94793 | 8644 ft | 276 kts | 158° |
| 2026-04-18 04:57 | -22.48334 | -43.93993 | 8206 ft | 275 kts | 158° |
| 2026-04-18 04:57 | -22.50074 | -43.93199 | 8051 ft | 266 kts | 158° |
| 2026-04-18 04:58 | -22.51765 | -43.92429 | 8052 ft | 263 kts | 158° |
| 2026-04-18 04:58 | -22.53456 | -43.91662 | 8052 ft | 264 kts | 158° |
| 2026-04-18 04:58 | -22.55148 | -43.90895 | 8051 ft | 263 kts | 158° |
| 2026-04-18 04:58 | -22.56838 | -43.90124 | 8051 ft | 264 kts | 158° |
| 2026-04-18 04:59 | -22.58526 | -43.89352 | 8048 ft | 264 kts | 158° |
| 2026-04-18 04:59 | -22.60218 | -43.88580 | 8004 ft | 264 kts | 158° |
| 2026-04-18 04:59 | -22.61908 | -43.87812 | 7872 ft | 263 kts | 158° |
| 2026-04-18 04:59 | -22.63599 | -43.87044 | 7745 ft | 263 kts | 158° |
| 2026-04-18 05:00 | -22.65287 | -43.86275 | 7619 ft | 263 kts | 158° |
| 2026-04-18 05:00 | -22.66972 | -43.85512 | 7490 ft | 263 kts | 158° |
| 2026-04-18 05:00 | -22.68662 | -43.84748 | 7368 ft | 264 kts | 158° |
| 2026-04-18 05:00 | -22.70350 | -43.83982 | 7239 ft | 263 kts | 158° |
| 2026-04-18 05:01 | -22.72036 | -43.83214 | 7123 ft | 262 kts | 158° |
| 2026-04-18 05:01 | -22.73696 | -43.82457 | 7012 ft | 262 kts | 158° |
| 2026-04-18 05:01 | -22.75331 | -43.81709 | 7005 ft | 243 kts | 158° |
| 2026-04-18 05:01 | -22.76862 | -43.81008 | 7008 ft | 237 kts | 158° |
| 2026-04-18 05:02 | -22.78375 | -43.80317 | 7014 ft | 235 kts | 158° |
| 2026-04-18 05:02 | -22.79883 | -43.79628 | 7014 ft | 235 kts | 158° |
| 2026-04-18 05:02 | -22.81410 | -43.78931 | 7015 ft | 245 kts | 158° |
| 2026-04-18 05:02 | -22.83001 | -43.78206 | 7015 ft | 250 kts | 158° |
| 2026-04-18 05:03 | -22.84610 | -43.77469 | 7008 ft | 251 kts | 158° |
| 2026-04-18 05:03 | -22.86221 | -43.76730 | 7007 ft | 252 kts | 158° |
| 2026-04-18 05:03 | -22.87837 | -43.75989 | 7012 ft | 253 kts | 158° |
| 2026-04-18 05:03 | -22.89472 | -43.75241 | 7003 ft | 256 kts | 158° |
| 2026-04-18 05:04 | -22.91120 | -43.74488 | 7006 ft | 257 kts | 158° |
| 2026-04-18 05:04 | -22.92769 | -43.73735 | 7006 ft | 257 kts | 157° |
| 2026-04-18 05:04 | -22.94303 | -43.72755 | 7002 ft | 252 kts | 142° |
| 2026-04-18 05:04 | -22.95519 | -43.71416 | 7006 ft | 249 kts | 127° |
| 2026-04-18 05:05 | -22.96404 | -43.69812 | 7007 ft | 248 kts | 117° |
| 2026-04-18 05:05 | -22.97207 | -43.68155 | 7008 ft | 248 kts | 117° |
| 2026-04-18 05:05 | -22.98016 | -43.66506 | 7011 ft | 248 kts | 118° |
| 2026-04-18 05:05 | -22.98789 | -43.64840 | 7004 ft | 247 kts | 110° |
| 2026-04-18 05:06 | -22.99188 | -43.63064 | 7007 ft | 246 kts | 94° |
| 2026-04-18 05:06 | -22.99127 | -43.61211 | 6924 ft | 246 kts | 78° |
| 2026-04-18 05:06 | -22.98604 | -43.59472 | 6757 ft | 242 kts | 62° |
| 2026-04-18 05:06 | -22.97865 | -43.57833 | 6615 ft | 237 kts | 62° |
| 2026-04-18 05:07 | -22.97186 | -43.56302 | 6475 ft | 218 kts | 62° |
| 2026-04-18 05:07 | -22.96539 | -43.54831 | 6347 ft | 215 kts | 62° |
| 2026-04-18 05:07 | -22.95916 | -43.53412 | 6253 ft | 196 kts | 62° |
| 2026-04-18 05:07 | -22.95362 | -43.52145 | 6107 ft | 177 kts | 62° |
| 2026-04-18 05:08 | -22.94843 | -43.50958 | 6001 ft | 170 kts | 61° |
| 2026-04-18 05:08 | -22.94357 | -43.49826 | 5813 ft | 161 kts | 62° |
| 2026-04-18 05:08 | -22.93895 | -43.48729 | 5643 ft | 159 kts | 62° |
| 2026-04-18 05:08 | -22.93435 | -43.47645 | 5448 ft | 158 kts | 62° |
| 2026-04-18 05:09 | -22.92976 | -43.46561 | 5267 ft | 158 kts | 62° |
| 2026-04-18 05:09 | -22.92520 | -43.45485 | 5066 ft | 155 kts | 62° |
| 2026-04-18 05:09 | -22.92075 | -43.44435 | 4933 ft | 152 kts | 62° |
| 2026-04-18 05:09 | -22.91635 | -43.43397 | 4776 ft | 151 kts | 62° |
| 2026-04-18 05:10 | -22.91197 | -43.42368 | 4652 ft | 150 kts | 62° |
| 2026-04-18 05:10 | -22.90761 | -43.41341 | 4500 ft | 149 kts | 62° |
| 2026-04-18 05:10 | -22.90328 | -43.40322 | 4385 ft | 149 kts | 63° |
| 2026-04-18 05:10 | -22.89903 | -43.39318 | 4251 ft | 148 kts | 63° |
| 2026-04-18 05:11 | -22.89468 | -43.38289 | 4117 ft | 148 kts | 63° |
| 2026-04-18 05:11 | -22.89045 | -43.37286 | 3980 ft | 147 kts | 63° |
| 2026-04-18 05:11 | -22.88632 | -43.36274 | 3844 ft | 147 kts | 68° |
| 2026-04-18 05:11 | -22.88372 | -43.35206 | 3719 ft | 147 kts | 79° |
| 2026-04-18 05:12 | -22.88303 | -43.34101 | 3594 ft | 147 kts | 91° |
| 2026-04-18 05:12 | -22.88345 | -43.32996 | 3457 ft | 146 kts | 91° |
| 2026-04-18 05:12 | -22.88382 | -43.31897 | 3332 ft | 146 kts | 91° |
| 2026-04-18 05:12 | -22.88418 | -43.30804 | 3200 ft | 145 kts | 91° |
| 2026-04-18 05:13 | -22.88454 | -43.29716 | 3072 ft | 144 kts | 91° |
| 2026-04-18 05:13 | -22.88490 | -43.28637 | 2943 ft | 143 kts | 91° |
| 2026-04-18 05:13 | -22.88525 | -43.27566 | 2814 ft | 142 kts | 91° |
| 2026-04-18 05:13 | -22.88597 | -43.26504 | 2688 ft | 141 kts | 99° |
| 2026-04-18 05:14 | -22.88902 | -43.25494 | 2531 ft | 141 kts | 111° |
| 2026-04-18 05:14 | -22.89273 | -43.24508 | 2361 ft | 141 kts | 111° |
| 2026-04-18 05:14 | -22.89639 | -43.23529 | 2194 ft | 140 kts | 110° |
| 2026-04-18 05:14 | -22.90001 | -43.22554 | 2018 ft | 139 kts | 110° |
| 2026-04-18 05:15 | -22.90362 | -43.21584 | 1850 ft | 138 kts | 111° |
| 2026-04-18 05:15 | -22.90858 | -43.20696 | 1674 ft | 139 kts | 128° |
| 2026-04-18 05:15 | -22.91563 | -43.20001 | 1500 ft | 140 kts | 143° |
| 2026-04-18 05:15 | -22.92449 | -43.19539 | 1317 ft | 141 kts | 161° |
| 2026-04-18 05:16 | -22.93398 | -43.19358 | 1153 ft | 140 kts | 170° |
| 2026-04-18 05:16 | -22.94246 | -43.18904 | 978 ft | 136 kts | 133° |
| 2026-04-18 05:16 | -22.94667 | -43.18007 | 820 ft | 135 kts | 96° |
| 2026-04-18 05:16 | -22.94525 | -43.17023 | 656 ft | 134 kts | 61° |
| 2026-04-18 05:17 | -22.93882 | -43.16315 | 489 ft | 133 kts | 26° |
| 2026-04-18 05:17 | -22.92984 | -43.16144 | 312 ft | 133 kts | 354° |
| 2026-04-18 05:17 | -22.92065 | -43.16216 | 117 ft | 131 kts | 356° |
| 2026-04-18 05:17 | -22.91182 | -43.16268 | 24 ft | 117 kts | 356° |
| 2026-04-18 05:18 | -22.90628 | -43.16311 | 27 ft | 35 kts | 356° |
| 2026-04-18 05:18 | -22.90504 | -43.16335 | 24 ft | 12 kts | 321° |
| 2026-04-18 05:18 | -22.90493 | -43.16419 | 24 ft | 12 kts | 266° |
| 2026-04-18 05:18 | -22.90498 | -43.16500 | 23 ft | 0 kts | 266° |
| 2026-04-18 05:19 | -22.90498 | -43.16501 | 22 ft | 0 kts | 266° |
| 2026-04-18 05:19 | -22.90498 | -43.16503 | 22 ft | 0 kts | 266° |
| 2026-04-18 05:19 | -22.90498 | -43.16504 | 22 ft | 0 kts | 266° |
| 2026-04-18 05:20 | -22.90525 | -43.16557 | 22 ft | 8 kts | 193° |
| 2026-04-18 05:20 | -22.90570 | -43.16555 | 24 ft | 6 kts | 177° |
| 2026-04-18 05:20 | -22.90609 | -43.16552 | 24 ft | 6 kts | 175° |
| 2026-04-18 05:20 | -22.90646 | -43.16549 | 25 ft | 5 kts | 176° |
| 2026-04-18 05:21 | -22.90689 | -43.16547 | 23 ft | 10 kts | 176° |
| 2026-04-18 05:21 | -22.90776 | -43.16541 | 23 ft | 13 kts | 178° |
| 2026-04-18 05:21 | -22.90859 | -43.16550 | 22 ft | 11 kts | 179° |
| 2026-04-18 05:21 | -22.90930 | -43.16545 | 24 ft | 8 kts | 176° |
| 2026-04-18 05:22 | -22.90951 | -43.16586 | 22 ft | 6 kts | 266° |
| 2026-04-18 05:22 | -22.90952 | -43.16594 | 22 ft | 2 kts | 258° |
| 2026-04-18 05:22 | -22.90953 | -43.16605 | 22 ft | 1 kts | 266° |
| 2026-04-18 05:22 | -22.90953 | -43.16614 | 22 ft | 1 kts | 266° |
| 2026-04-18 05:23 | -22.90953 | -43.16615 | 22 ft | 0 kts | 266° |